createdAt,value
2018-02-15T00:00:41.982Z,2.03
2018-02-15T00:03:09.598Z,2.00
2018-02-15T00:05:37.189Z,1.94
2018-02-15T00:08:04.759Z,1.92
2018-02-15T00:10:32.447Z,1.88
2018-02-15T00:13:00.072Z,1.91
2018-02-15T00:15:27.640Z,1.88
2018-02-15T00:17:55.210Z,1.83
2018-02-15T00:20:22.835Z,1.79
2018-02-15T00:22:50.439Z,1.76
2018-02-15T00:25:18.065Z,1.74
2018-02-15T00:27:45.630Z,1.78
2018-02-15T00:30:13.255Z,1.75
2018-02-15T00:32:40.800Z,1.82
2018-02-15T00:35:08.466Z,1.84
2018-02-15T00:37:36.195Z,1.79
2018-02-15T00:40:03.757Z,1.77
2018-02-15T00:42:31.326Z,1.73
2018-02-15T00:44:58.882Z,1.67
2018-02-15T00:47:26.502Z,1.67
2018-02-15T00:49:54.067Z,1.60
2018-02-15T00:52:21.634Z,1.57
2018-02-15T00:54:49.197Z,1.65
2018-02-15T00:57:16.814Z,1.60
2018-02-15T00:59:44.490Z,1.61
2018-02-15T01:02:12.060Z,1.59
2018-02-15T01:04:39.679Z,1.55
2018-02-15T01:07:07.312Z,1.52
2018-02-15T01:09:34.899Z,1.61
2018-02-15T01:12:02.546Z,1.57
2018-02-15T01:14:30.088Z,1.72
2018-02-15T01:16:57.697Z,1.80
2018-02-15T01:19:25.309Z,1.94
2018-02-15T01:21:52.941Z,1.97
2018-02-15T01:24:20.506Z,1.98
2018-02-15T01:26:48.122Z,2.05
2018-02-15T01:29:15.687Z,2.04
2018-02-15T01:31:43.242Z,2.01
2018-02-15T01:34:10.862Z,2.06
2018-02-15T01:36:38.422Z,2.25
2018-02-15T01:39:05.996Z,2.24
2018-02-15T01:41:33.585Z,2.21
2018-02-15T01:44:01.142Z,2.22
2018-02-15T01:46:28.767Z,2.17
2018-02-15T01:48:56.343Z,2.12
2018-02-15T01:51:23.936Z,2.05
2018-02-15T01:53:51.483Z,2.02
2018-02-15T01:56:19.099Z,2.05
2018-02-15T01:58:46.730Z,2.03
2018-02-15T02:01:14.290Z,2.09
2018-02-15T02:03:41.909Z,2.03
2018-02-15T02:06:09.469Z,2.05
2018-02-15T02:08:37.096Z,2.12
2018-02-15T02:11:04.655Z,2.08
2018-02-15T02:13:32.209Z,2.04
2018-02-15T02:15:59.773Z,2.08
2018-02-15T02:18:27.421Z,2.02
2018-02-15T02:20:54.987Z,1.96
2018-02-15T02:23:22.546Z,1.94
2018-02-15T02:25:50.158Z,1.92
2018-02-15T02:28:17.728Z,1.96
2018-02-15T02:30:45.295Z,1.93
2018-02-15T02:33:12.922Z,1.92
2018-02-15T02:35:40.486Z,1.95
2018-02-15T02:38:08.053Z,1.86
2018-02-15T02:40:35.622Z,1.84
2018-02-15T02:43:03.248Z,1.80
2018-02-15T02:45:30.819Z,1.76
2018-02-15T02:47:58.387Z,1.68
2018-02-15T02:50:26.036Z,1.69
2018-02-15T02:52:53.667Z,1.77
2018-02-15T02:55:21.230Z,1.88
2018-02-15T02:57:48.793Z,1.85
2018-02-15T03:00:16.428Z,1.80
2018-02-15T03:02:44.058Z,1.71
2018-02-15T03:05:11.639Z,1.62
2018-02-15T03:07:39.282Z,1.52
2018-02-15T03:10:06.915Z,1.45
2018-02-15T03:12:34.495Z,1.39
2018-02-15T03:15:02.084Z,1.32
2018-02-15T03:17:29.919Z,1.32
2018-02-15T03:19:57.482Z,1.29
2018-02-15T03:22:25.851Z,1.26
2018-02-15T03:24:53.437Z,1.19
2018-02-15T03:27:21.067Z,1.14
2018-02-15T03:29:48.687Z,1.15
2018-02-15T03:32:16.310Z,1.20
2018-02-15T03:34:43.991Z,1.06
2018-02-15T03:37:11.563Z,0.96
2018-02-15T03:39:39.126Z,0.85
2018-02-15T03:42:06.773Z,0.81
2018-02-15T03:44:34.398Z,0.79
2018-02-15T03:47:02.031Z,0.75
2018-02-15T03:49:29.654Z,0.75
2018-02-15T03:51:57.324Z,0.85
2018-02-15T03:54:24.894Z,0.81
2018-02-15T03:56:52.458Z,0.80
2018-02-15T03:59:20.038Z,0.81
2018-02-15T04:01:47.671Z,0.84
2018-02-15T04:04:15.322Z,0.82
2018-02-15T04:06:42.892Z,0.84
2018-02-15T04:09:10.516Z,0.79
2018-02-15T04:11:38.086Z,0.67
2018-02-15T04:14:05.650Z,0.55
2018-02-15T04:16:33.219Z,0.48
2018-02-15T04:19:00.849Z,0.38
2018-02-15T04:21:28.424Z,0.33
2018-02-15T04:23:56.074Z,0.33
2018-02-15T04:26:23.756Z,0.28
2018-02-15T04:28:51.324Z,0.22
2018-02-15T04:31:18.912Z,0.15
2018-02-15T04:33:46.546Z,0.18
2018-02-15T04:36:14.187Z,0.16
2018-02-15T04:38:41.764Z,0.09
2018-02-15T04:41:09.386Z,0.07
2018-02-15T04:43:37.003Z,0.02
2018-02-15T04:46:04.569Z,-0.03
2018-02-15T04:48:32.133Z,-0.07
2018-02-15T04:50:59.719Z,-0.14
2018-02-15T04:53:27.297Z,-0.16
2018-02-15T04:55:54.878Z,-0.19
2018-02-15T04:58:22.464Z,-0.20
2018-02-15T05:00:50.107Z,-0.20
2018-02-15T05:03:17.688Z,-0.23
2018-02-15T05:05:45.323Z,-0.23
2018-02-15T05:08:12.911Z,-0.23
2018-02-15T05:10:40.556Z,-0.24
2018-02-15T05:13:08.137Z,-0.28
2018-02-15T05:15:35.689Z,-0.27
2018-02-15T05:18:03.328Z,-0.30
2018-02-15T05:20:30.905Z,-0.33
2018-02-15T05:22:58.534Z,-0.30
2018-02-15T05:25:26.133Z,-0.24
2018-02-15T05:27:53.694Z,-0.22
2018-02-15T05:30:21.276Z,-0.18
2018-02-15T05:32:48.823Z,-0.15
2018-02-15T05:35:16.445Z,-0.08
2018-02-15T05:37:44.071Z,0.01
2018-02-15T05:40:11.641Z,0.15
2018-02-15T05:42:39.227Z,0.31
2018-02-15T05:45:06.855Z,0.47
2018-02-15T05:47:34.442Z,0.69
2018-02-15T05:50:02.010Z,0.87
2018-02-15T05:52:29.634Z,1.01
2018-02-15T05:54:57.206Z,1.15
2018-02-15T05:57:24.778Z,1.40
2018-02-15T05:59:52.406Z,1.56
2018-02-15T06:02:19.966Z,1.71
2018-02-15T06:04:47.534Z,1.89
2018-02-15T06:07:15.104Z,2.03
2018-02-15T06:09:42.722Z,2.28
2018-02-15T06:12:10.289Z,2.57
2018-02-15T06:14:37.887Z,2.74
2018-02-15T06:17:05.460Z,2.82
2018-02-15T06:19:33.029Z,3.01
2018-02-15T06:22:00.604Z,3.19
2018-02-15T06:24:28.198Z,3.37
2018-02-15T06:26:55.824Z,3.53
2018-02-15T06:29:23.395Z,3.58
2018-02-15T06:31:51.023Z,3.69
2018-02-15T06:34:18.598Z,3.89
2018-02-15T06:36:46.202Z,4.09
2018-02-15T06:39:13.789Z,4.29
2018-02-15T06:41:41.361Z,4.28
2018-02-15T06:44:08.983Z,4.29
2018-02-15T06:46:36.607Z,4.21
2018-02-15T06:49:04.183Z,4.12
2018-02-15T06:51:31.753Z,3.96
2018-02-15T06:53:59.379Z,4.08
2018-02-15T06:56:26.964Z,4.05
2018-02-15T06:58:54.526Z,4.15
2018-02-15T07:01:22.203Z,4.26
2018-02-15T07:03:49.832Z,4.37
2018-02-15T07:06:17.390Z,4.39
2018-02-15T07:08:44.965Z,4.53
2018-02-15T07:11:12.557Z,4.78
2018-02-15T07:13:40.204Z,5.03
2018-02-15T07:16:07.770Z,5.24
2018-02-15T07:18:35.392Z,5.42
2018-02-15T07:21:03.027Z,5.53
2018-02-15T07:23:30.594Z,5.58
2018-02-15T07:25:58.156Z,5.77
2018-02-15T07:28:25.718Z,5.86
2018-02-15T07:30:53.347Z,6.00
2018-02-15T07:33:20.922Z,6.19
2018-02-15T07:35:48.604Z,6.36
2018-02-15T07:38:16.182Z,6.38
2018-02-15T07:40:43.822Z,6.37
2018-02-15T07:43:11.393Z,6.47
2018-02-15T07:45:38.959Z,6.40
2018-02-15T07:48:06.574Z,6.45
2018-02-15T07:50:34.235Z,6.68
2018-02-15T07:53:01.908Z,6.88
2018-02-15T07:55:29.575Z,6.85
2018-02-15T07:57:57.248Z,6.78
2018-02-15T08:00:24.831Z,6.93
2018-02-15T08:02:52.458Z,7.01
2018-02-15T08:05:20.099Z,7.18
2018-02-15T08:07:47.669Z,7.34
2018-02-15T08:10:15.294Z,7.30
2018-02-15T08:12:42.918Z,7.43
2018-02-15T08:15:10.491Z,7.58
2018-02-15T08:17:38.090Z,7.60
2018-02-15T08:20:05.663Z,7.68
2018-02-15T08:22:33.252Z,7.85
2018-02-15T08:25:00.832Z,8.14
2018-02-15T08:27:28.469Z,8.28
2018-02-15T08:29:56.095Z,8.34
2018-02-15T08:32:23.701Z,8.64
2018-02-15T08:34:51.291Z,8.53
2018-02-15T08:37:18.853Z,8.60
2018-02-15T08:39:46.435Z,8.80
2018-02-15T08:42:14.006Z,8.78
2018-02-15T08:44:41.722Z,8.78
2018-02-15T08:47:09.288Z,8.92
2018-02-15T08:49:36.868Z,8.44
2018-02-15T08:52:04.444Z,8.24
2018-02-15T08:54:32.001Z,8.01
2018-02-15T08:56:59.573Z,7.79
2018-02-15T08:59:27.197Z,7.68
2018-02-15T09:01:54.883Z,7.30
2018-02-15T09:04:22.507Z,7.17
2018-02-15T09:06:50.072Z,6.87
2018-02-15T09:09:17.653Z,6.93
2018-02-15T09:11:45.269Z,7.11
2018-02-15T09:14:12.921Z,7.22
2018-02-15T09:16:40.546Z,7.06
2018-02-15T09:19:08.176Z,6.79
2018-02-15T09:21:35.803Z,6.71
2018-02-15T09:24:03.437Z,6.56
2018-02-15T09:26:31.069Z,6.62
2018-02-15T09:28:58.693Z,6.93
2018-02-15T09:31:26.334Z,7.50
2018-02-15T09:33:53.897Z,8.37
2018-02-15T09:36:21.522Z,9.43
2018-02-15T09:38:49.094Z,10.05
2018-02-15T09:41:16.722Z,9.96
2018-02-15T09:43:44.304Z,9.45
2018-02-15T09:46:11.865Z,8.74
2018-02-15T09:48:39.474Z,7.88
2018-02-15T09:51:07.037Z,7.93
2018-02-15T09:53:34.602Z,8.63
2018-02-15T09:56:02.214Z,9.29
2018-02-15T09:58:29.782Z,10.33
2018-02-15T10:00:57.358Z,10.36
2018-02-15T10:03:24.986Z,10.67
2018-02-15T10:05:52.549Z,11.09
2018-02-15T10:08:20.156Z,11.83
2018-02-15T10:10:47.783Z,12.32
2018-02-15T10:13:15.422Z,12.29
2018-02-15T10:15:42.986Z,11.74
2018-02-15T10:18:10.685Z,12.22
2018-02-15T10:20:38.308Z,11.98
2018-02-15T10:23:05.858Z,11.62
2018-02-15T10:25:33.490Z,10.37
2018-02-15T10:28:01.122Z,9.91
2018-02-15T10:30:28.816Z,10.22
2018-02-15T10:32:56.386Z,10.45
2018-02-15T10:35:23.961Z,10.92
2018-02-15T10:37:51.539Z,10.45
2018-02-15T10:40:19.103Z,10.62
2018-02-15T10:42:46.728Z,11.10
2018-02-15T10:45:14.337Z,11.00
2018-02-15T10:47:41.908Z,11.17
2018-02-15T10:50:09.490Z,11.69
2018-02-15T10:52:37.098Z,12.52
2018-02-15T10:55:04.724Z,13.29
2018-02-15T10:57:32.350Z,13.53
2018-02-15T10:59:59.926Z,14.18
2018-02-15T11:02:27.541Z,14.19
2018-02-15T11:05:00.618Z,14.27
2018-02-15T11:07:34.950Z,14.53
2018-02-15T11:10:02.538Z,12.57
2018-02-15T11:12:30.235Z,12.44
2018-02-15T11:14:57.798Z,13.26
2018-02-15T11:17:25.363Z,13.79
2018-02-15T11:19:52.945Z,13.73
2018-02-15T11:22:20.546Z,13.60
2018-02-15T11:24:48.182Z,12.53
2018-02-15T11:27:15.797Z,11.52
2018-02-15T11:29:43.420Z,11.37
2018-02-15T11:32:11.055Z,11.70
2018-02-15T11:34:38.640Z,10.93
2018-02-15T11:37:06.226Z,10.74
2018-02-15T11:39:33.859Z,10.70
2018-02-15T11:42:01.441Z,11.14
2018-02-15T11:44:29.067Z,11.61
2018-02-15T11:46:56.707Z,11.09
2018-02-15T11:49:24.292Z,10.79
2018-02-15T11:51:51.867Z,10.94
2018-02-15T11:54:19.503Z,11.11
2018-02-15T11:56:47.076Z,10.88
2018-02-15T11:59:14.724Z,10.93
2018-02-15T12:01:42.300Z,10.96
2018-02-15T12:04:09.933Z,11.21
2018-02-15T12:06:37.505Z,11.13
2018-02-15T12:09:05.188Z,11.08
2018-02-15T12:11:32.746Z,11.02
2018-02-15T12:14:00.311Z,10.79
2018-02-15T12:16:27.945Z,10.88
2018-02-15T12:18:55.574Z,10.33
2018-02-15T12:21:23.270Z,10.43
2018-02-15T12:23:50.903Z,10.18
2018-02-15T12:26:18.525Z,10.02
2018-02-15T12:28:46.173Z,10.22
2018-02-15T12:31:13.747Z,10.26
2018-02-15T12:33:41.323Z,10.39
2018-02-15T12:36:08.951Z,10.46
2018-02-15T12:38:36.576Z,10.54
2018-02-15T12:41:04.124Z,10.39
2018-02-15T12:43:31.674Z,10.32
2018-02-15T12:45:59.307Z,10.53
2018-02-15T12:48:26.934Z,10.35
2018-02-15T12:50:54.505Z,9.90
2018-02-15T12:53:22.122Z,9.56
2018-02-15T12:55:49.754Z,9.45
2018-02-15T12:58:17.389Z,9.41
2018-02-15T13:00:44.949Z,9.31
2018-02-15T13:03:12.524Z,9.24
2018-02-15T13:05:40.158Z,9.23
2018-02-15T13:08:07.795Z,9.34
2018-02-15T13:10:35.366Z,9.36
2018-02-15T13:13:14.542Z,9.64
2018-02-15T13:15:53.760Z,9.84
2018-02-15T13:18:21.349Z,9.74
2018-02-15T13:20:48.917Z,9.60
2018-02-15T13:23:16.599Z,9.39
2018-02-15T13:25:44.162Z,9.44
2018-02-15T13:31:15.892Z,9.41
2018-02-15T13:33:43.512Z,9.46
2018-02-15T13:36:11.073Z,9.45
2018-02-15T13:38:38.637Z,9.44
2018-02-15T13:41:06.265Z,9.51
2018-02-15T13:43:33.835Z,9.46
2018-02-15T13:46:01.473Z,9.36
2018-02-15T13:48:29.052Z,9.38
2018-02-15T13:50:56.749Z,9.27
2018-02-15T13:53:24.314Z,9.29
2018-02-15T13:55:51.882Z,9.32
2018-02-15T13:58:19.543Z,9.21
2018-02-15T14:00:47.105Z,9.03
2018-02-15T14:03:14.749Z,9.07
2018-02-15T14:05:42.393Z,9.05
2018-02-15T14:08:10.087Z,9.05
2018-02-15T14:10:37.655Z,9.04
2018-02-15T14:13:05.232Z,9.01
2018-02-15T14:15:32.817Z,8.85
2018-02-15T14:18:00.390Z,8.78
2018-02-15T14:20:27.976Z,8.54
2018-02-15T14:22:55.549Z,8.55
2018-02-15T14:25:23.170Z,8.17
2018-02-15T14:27:50.749Z,8.20
2018-02-15T14:30:18.378Z,8.13
2018-02-15T14:32:45.952Z,8.03
2018-02-15T14:35:13.570Z,7.93
2018-02-15T14:37:41.144Z,7.85
2018-02-15T14:40:08.765Z,7.81
2018-02-15T14:42:36.391Z,7.77
2018-02-15T14:45:04.033Z,7.59
2018-02-15T14:47:31.669Z,7.38
2018-02-15T14:49:59.306Z,7.36
2018-02-15T14:52:26.874Z,7.33
2018-02-15T14:54:54.523Z,7.20
2018-02-15T14:57:22.155Z,7.07
2018-02-15T14:59:49.779Z,7.03
2018-02-15T15:02:17.350Z,7.08
2018-02-15T15:04:44.918Z,7.07
2018-02-15T15:07:12.554Z,7.03
2018-02-15T15:09:40.197Z,7.01
2018-02-15T15:12:07.846Z,7.02
2018-02-15T15:14:35.427Z,7.01
2018-02-15T15:17:03.054Z,7.05
2018-02-15T15:19:30.623Z,7.07
2018-02-15T15:21:58.199Z,7.08
2018-02-15T15:24:25.783Z,7.09
2018-02-15T15:26:53.358Z,7.08
2018-02-15T15:29:20.996Z,7.04
2018-02-15T15:31:48.582Z,6.99
2018-02-15T15:34:16.206Z,6.92
2018-02-15T15:36:43.851Z,6.95
2018-02-15T15:39:11.491Z,6.94
2018-02-15T15:41:39.123Z,6.92
2018-02-15T15:44:06.779Z,6.85
2018-02-15T15:46:34.423Z,6.84
2018-02-15T15:49:02.005Z,6.85
2018-02-15T15:51:29.665Z,6.85
2018-02-15T15:53:57.287Z,6.76
2018-02-15T15:56:24.946Z,6.72
2018-02-15T15:58:52.521Z,6.75
2018-02-15T16:01:20.090Z,6.76
2018-02-15T16:03:47.674Z,6.77
2018-02-15T16:06:15.245Z,6.69
2018-02-15T16:08:42.908Z,6.60
2018-02-15T16:11:10.505Z,6.64
2018-02-15T16:13:38.147Z,6.66
2018-02-15T16:16:05.730Z,6.67
2018-02-15T16:18:33.311Z,6.63
2018-02-15T16:21:00.982Z,6.54
2018-02-15T16:23:28.558Z,6.54
2018-02-15T16:25:56.305Z,6.46
2018-02-15T16:28:23.886Z,6.48
2018-02-15T16:30:52.363Z,6.43
2018-02-15T16:33:19.962Z,6.42
2018-02-15T16:35:47.544Z,6.35
2018-02-15T16:38:15.127Z,6.28
2018-02-15T16:40:42.772Z,6.25
2018-02-15T16:43:10.465Z,6.20
2018-02-15T16:45:38.116Z,6.18
2018-02-15T16:48:05.679Z,6.14
2018-02-15T16:50:33.337Z,6.08
2018-02-15T16:53:00.895Z,6.05
2018-02-15T16:55:28.474Z,6.02
2018-02-15T16:57:56.119Z,6.00
2018-02-15T17:00:23.773Z,5.98
2018-02-15T17:02:51.414Z,5.92
2018-02-15T17:05:19.083Z,5.84
2018-02-15T17:07:47.486Z,5.73
2018-02-15T17:10:15.067Z,5.62
2018-02-15T17:12:43.550Z,5.51
2018-02-15T17:15:11.129Z,5.44
2018-02-15T17:17:38.765Z,5.34
2018-02-15T17:20:06.418Z,5.17
2018-02-15T17:22:34.062Z,5.05
2018-02-15T17:25:01.652Z,5.02
2018-02-15T17:27:29.234Z,4.95
2018-02-15T17:29:56.828Z,4.85
2018-02-15T17:32:24.411Z,4.69
2018-02-15T17:34:52.051Z,4.58
2018-02-15T17:37:19.627Z,4.48
2018-02-15T17:39:47.281Z,4.43
2018-02-15T17:42:14.878Z,4.44
2018-02-15T17:44:42.466Z,4.43
2018-02-15T17:47:10.139Z,4.47
2018-02-15T17:49:37.730Z,4.45
2018-02-15T17:52:05.366Z,4.44
2018-02-15T17:54:33.038Z,4.42
2018-02-15T17:57:00.626Z,4.38
2018-02-15T17:59:28.248Z,4.42
2018-02-15T18:01:55.847Z,4.46
2018-02-15T18:04:23.469Z,4.49
2018-02-15T18:06:51.056Z,4.44
2018-02-15T18:09:18.730Z,4.42
2018-02-15T18:11:46.633Z,4.38
2018-02-15T18:14:14.242Z,4.36
2018-02-15T18:16:41.906Z,4.37
2018-02-15T18:19:09.507Z,4.33
2018-02-15T18:21:37.121Z,4.28
2018-02-15T18:24:04.726Z,4.21
2018-02-15T18:26:32.449Z,4.17
2018-02-15T18:29:00.327Z,4.16
2018-02-15T18:31:27.991Z,4.16
2018-02-15T18:33:55.638Z,4.16
2018-02-15T18:36:23.222Z,4.17
2018-02-15T18:38:50.935Z,4.18
2018-02-15T18:41:18.586Z,4.19
2018-02-15T18:43:46.223Z,4.17
2018-02-15T18:46:13.806Z,4.18
2018-02-15T18:48:41.466Z,4.15
2018-02-15T18:51:09.107Z,4.16
2018-02-15T18:53:36.683Z,4.18
2018-02-15T18:56:04.336Z,4.25
2018-02-15T18:58:31.979Z,4.33
2018-02-15T19:00:59.639Z,4.39
2018-02-15T19:03:27.320Z,4.45
2018-02-15T19:05:54.893Z,4.48
2018-02-15T19:08:22.475Z,4.57
2018-02-15T19:10:50.054Z,4.60
2018-02-15T19:13:17.649Z,4.64
2018-02-15T19:15:45.286Z,4.70
2018-02-15T19:18:12.934Z,4.75
2018-02-15T19:20:40.506Z,4.78
2018-02-15T19:23:08.100Z,4.77
2018-02-15T19:25:35.748Z,4.84
2018-02-15T19:28:03.443Z,4.84
2018-02-15T19:30:31.020Z,4.91
2018-02-15T19:32:58.599Z,4.91
2018-02-15T19:35:26.253Z,4.88
2018-02-15T19:37:53.905Z,4.86
2018-02-15T19:40:21.611Z,4.79
2018-02-15T19:45:30.946Z,4.62
2018-02-15T19:47:58.527Z,4.55
2018-02-15T19:50:26.106Z,4.52
2018-02-15T19:52:53.746Z,4.50
2018-02-15T19:55:21.388Z,4.48
2018-02-15T19:57:49.026Z,4.46
2018-02-15T20:00:16.599Z,4.49
2018-02-15T20:02:44.178Z,4.51
2018-02-15T20:05:11.783Z,4.56
2018-02-15T20:07:39.422Z,4.58
2018-02-15T20:10:07.065Z,4.57
2018-02-15T20:12:34.671Z,4.57
2018-02-15T20:15:02.661Z,4.61
2018-02-15T20:17:30.246Z,4.63
2018-02-15T20:20:03.238Z,4.68
2018-02-15T20:22:30.874Z,4.71
2018-02-15T20:24:58.518Z,4.73
2018-02-15T20:27:31.810Z,4.73
2018-02-15T20:29:59.387Z,4.70
2018-02-15T20:32:27.050Z,4.73
2018-02-15T20:34:54.690Z,4.81
2018-02-15T20:37:22.302Z,4.83
2018-02-15T20:39:55.461Z,4.83
2018-02-15T20:42:23.068Z,4.86
2018-02-15T20:44:50.772Z,4.89
2018-02-15T20:47:18.354Z,4.86
2018-02-15T20:49:51.558Z,4.88
2018-02-15T20:52:24.627Z,4.83
2018-02-15T20:54:57.708Z,4.83
2018-02-15T20:57:25.272Z,4.82
2018-02-15T20:59:52.867Z,4.83
2018-02-15T21:02:20.438Z,4.83
2018-02-15T21:04:48.038Z,4.85
2018-02-15T21:07:15.681Z,4.80
2018-02-15T21:09:43.253Z,4.83
2018-02-15T21:12:10.896Z,4.86
2018-02-15T21:14:38.471Z,4.85
2018-02-15T21:17:06.078Z,4.84
2018-02-15T21:19:33.705Z,4.90
2018-02-15T21:22:01.340Z,4.92
2018-02-15T21:24:30.039Z,4.96
2018-02-15T21:26:57.624Z,5.00
2018-02-15T21:29:25.175Z,5.06
2018-02-15T21:31:52.856Z,5.12
2018-02-15T21:34:20.487Z,5.11
2018-02-15T21:36:48.063Z,5.15
2018-02-15T21:39:15.705Z,5.13
2018-02-15T21:41:43.301Z,5.12
2018-02-15T21:44:10.952Z,5.09
2018-02-15T21:46:38.592Z,5.10
2018-02-15T21:49:06.164Z,5.07
2018-02-15T21:51:33.746Z,5.10
2018-02-15T21:54:01.322Z,5.12
2018-02-15T21:56:28.964Z,5.15
2018-02-15T21:58:56.542Z,5.13
2018-02-15T22:01:24.122Z,5.07
2018-02-15T22:03:51.788Z,5.12
2018-02-15T22:06:19.430Z,5.06
2018-02-15T22:08:47.062Z,5.07
2018-02-15T22:11:14.637Z,5.08
2018-02-15T22:13:42.214Z,5.09
2018-02-15T22:16:09.809Z,5.07
2018-02-15T22:18:37.425Z,5.02
2018-02-15T22:21:05.050Z,5.09
2018-02-15T22:23:32.722Z,5.12
2018-02-15T22:26:00.290Z,5.14
2018-02-15T22:28:27.865Z,5.15
2018-02-15T22:30:55.506Z,5.21
2018-02-15T22:33:23.139Z,5.24
2018-02-15T22:35:50.717Z,5.25
2018-02-15T22:38:18.328Z,5.22
2018-02-15T22:40:45.908Z,5.20
2018-02-15T22:43:13.469Z,5.21
2018-02-15T22:45:41.178Z,5.20
2018-02-15T22:48:08.816Z,5.19
2018-02-15T22:50:36.443Z,5.21
2018-02-15T22:53:04.028Z,5.16
2018-02-15T22:55:31.665Z,5.15
2018-02-15T22:57:59.387Z,5.18
2018-02-15T23:00:27.063Z,5.19
2018-02-15T23:02:54.727Z,5.18
2018-02-15T23:05:22.331Z,5.26
2018-02-15T23:07:49.910Z,5.28
2018-02-15T23:10:17.530Z,5.29
2018-02-15T23:12:45.103Z,5.25
2018-02-15T23:15:12.731Z,5.24
2018-02-15T23:17:40.690Z,5.18
2018-02-15T23:20:08.281Z,5.16
2018-02-15T23:22:35.905Z,5.16
2018-02-15T23:25:03.478Z,5.13
2018-02-15T23:27:31.046Z,5.13
2018-02-15T23:29:58.691Z,5.13
2018-02-15T23:32:26.253Z,5.13
2018-02-15T23:34:53.898Z,5.14
2018-02-15T23:37:21.466Z,5.11
2018-02-15T23:39:49.058Z,5.08
2018-02-15T23:42:16.706Z,5.04
2018-02-15T23:44:44.299Z,5.07
2018-02-15T23:47:11.982Z,5.10
2018-02-15T23:49:39.550Z,5.13
2018-02-15T23:52:07.123Z,5.15
2018-02-15T23:54:34.706Z,5.18
2018-02-15T23:57:02.335Z,5.18
2018-02-15T23:59:29.969Z,5.20
